Flight Track Log - Related Links

Times and Time Zones

All times are in EDT time to prevent confusion due to time zone crossing. See the EJA829P flight status page for this flight to view local times or setup timezone preferences in your user account.

Time Position Orientation Groundspeed Altitude Reporting Facility
EDT Latitude Longitude Course Direction KTS MPH feet Rate Location/Type
Thu 02:54:07 PM 43.6500 -79.6167 200° South 170 196 2,700  Level Toronto Center
Thu 02:55:07 PM 43.5833 -79.6500 200° South 260 299 6,300 2,650 Climbing Toronto Center
Thu 02:56:07 PM 43.5167 -79.6500 180° South 260 299 8,000 2,700 Climbing Toronto Center
Thu 02:57:07 PM 43.4333 -79.6833 196° South 280 322 11,700 3,950 Climbing Toronto Center
Thu 02:58:07 PM 43.3500 -79.6833 180° South 320 368 15,900 4,200 Climbing Toronto Center
Thu 02:59:07 PM 43.2500 -79.7000 187° South 350 403 20,100 3,700 Climbing Toronto Center
Thu 03:00:07 PM 43.1500 -79.7167 187° South 350 403 23,300 1,950 Climbing Toronto Center
Thu 03:01:07 PM 43.0500 -79.7500 194° South 390 449 24,000 350 Climbing Toronto Center
Thu 03:02:07 PM 42.9333 -79.7667 186° South 390 449 24,000 850 Level Toronto Center
Thu 03:03:07 PM 42.8333 -79.8000 194° South 390 449 25,700 1,620 Climbing Toronto Center
Thu 03:03:47 PM 42.7814 -79.8256 200° South 392 451 26,700 2,000 Climbing Cleveland Center
Thu 03:04:49 PM 42.6503 -79.8533 189° South 399 459 29,100 2,129 Climbing Cleveland Center
Thu 03:05:51 PM 42.5408 -79.8747 188° South 399 459 31,100 1,694 Climbing Cleveland Center
Thu 03:06:53 PM 42.4331 -79.8975 189° South 390 449 32,600 1,210 Climbing Cleveland Center
Thu 03:07:55 PM 42.3244 -79.9183 188° South 394 453 33,600 960 Climbing Cleveland Center
Thu 03:08:58 PM 42.2161 -79.9408 189° South 395 455 34,600 960 Climbing Cleveland Center
Thu 03:10:00 PM 42.1078 -79.9644 189° South 395 455 35,600 1,258 Climbing Cleveland Center
Thu 03:11:02 PM 41.9825 -79.9875 188° South 382 440 37,200 1,452 Climbing Cleveland Center
Thu 03:12:04 PM 41.8831 -80.0069 188° South 358 412 38,600 1,161 Climbing Cleveland Center
Thu 03:13:06 PM 41.7842 -80.0256 188° South 357 411 39,600 677 Climbing Cleveland Center
Thu 03:14:08 PM 41.6858 -80.0456 189° South 355 409 40,000 194 Climbing Cleveland Center
Thu 03:15:10 PM 41.5822 -80.0656 188° South 369 425 40,000  Level Cleveland Center
Thu 03:16:13 PM 41.4778 -80.0853 188° South 375 432 40,000  Level Cleveland Center
Thu 03:17:15 PM 41.3694 -80.1064 188° South 388 447 40,000  Level Cleveland Center
Thu 03:19:19 PM 41.1272 -80.1531 188° South 397 457 40,000  Level Cleveland Center
Thu 03:20:21 PM 41.0175 -80.1744 188° South 398 458 40,000  Level Cleveland Center
Thu 03:21:23 PM 40.9083 -80.1956 188° South 398 458 40,000  Level Cleveland Center
Thu 03:22:25 PM 40.7958 -80.2347 195° South 382 440 40,000  Level Cleveland Center
Thu 03:23:28 PM 40.7050 -80.3017 209° Southwest 374 430 40,000  Level Cleveland Center
Thu 03:24:30 PM 40.6147 -80.3694 210° Southwest 373 429 40,000  Level Cleveland Center
Thu 03:25:32 PM 40.5181 -80.4422 210° Southwest 373 429 40,000  Level Cleveland Center
Thu 03:26:34 PM 40.4289 -80.5106 210° Southwest 374 430 40,000  Level Cleveland Center
Thu 03:27:36 PM 40.3206 -80.5911 210° Southwest 374 430 40,000  Level Cleveland Center
Thu 03:28:38 PM 40.2297 -80.6586 210° Southwest 376 433 40,000  Level Cleveland Center
Thu 03:29:40 PM 40.1386 -80.7258 209° Southwest 376 433 40,000  Level Cleveland Center
Thu 03:30:43 PM 40.0483 -80.7931 210° Southwest 377 434 40,000  Level Cleveland Center
Thu 03:31:45 PM 39.9533 -80.8536 206° Southwest 378 435 40,000  Level Cleveland Center
Thu 03:32:47 PM 39.8558 -80.9089 204° Southwest 380 437 40,000  Level Cleveland Center
Thu 03:33:52 PM 39.7389 -80.9786 205° Southwest 379 436 40,000  Level Indianapolis Center
Thu 03:34:54 PM 39.6419 -81.0356 204° Southwest 379 436 40,000  Level Indianapolis Center
Thu 03:35:56 PM 39.5444 -81.0925 204° Southwest 381 438 40,000  Level Indianapolis Center
Thu 03:36:58 PM 39.4467 -81.1481 204° Southwest 381 438 40,000  Level Indianapolis Center
Thu 03:38:00 PM 39.3286 -81.2156 204° Southwest 384 442 40,000  Level Indianapolis Center
Thu 03:39:03 PM 39.2303 -81.2722 204° Southwest 384 442 40,000  Level Indianapolis Center
Thu 03:40:05 PM 39.1311 -81.3286 204° Southwest 385 443 40,000  Level Indianapolis Center
Thu 03:41:07 PM 39.0325 -81.3847 204° Southwest 385 443 40,000  Level Indianapolis Center
Thu 03:42:09 PM 38.9333 -81.4414 204° Southwest 385 443 40,000  Level Indianapolis Center
Thu 03:43:11 PM 38.8344 -81.4975 204° Southwest 386 444 40,000  Level Indianapolis Center
Thu 03:44:13 PM 38.7319 -81.5583 205° Southwest 387 445 40,000 -532 Level Indianapolis Center
Thu 03:45:15 PM 38.6172 -81.6244 204° Southwest 387 445 38,900 -968 Descending Indianapolis Center
Thu 03:46:17 PM 38.5306 -81.6689 202° Southwest 378 435 38,000 -919 Descending Indianapolis Center
Thu 03:47:19 PM 38.4342 -81.7217 203° Southwest 376 433 37,000 -484 Descending Indianapolis Center
Thu 03:48:21 PM 38.3000 -81.7450 188° South 402 463 37,000  Level Indianapolis Center
Thu 03:49:24 PM 38.1844 -81.7625 187° South 413 475 37,000 -288 Level Indianapolis Center
Thu 03:50:26 PM 38.0683 -81.7786 186° South 416 479 36,400 -774 Descending Indianapolis Center
Thu 03:51:28 PM 37.9544 -81.7953 187° South 415 478 35,400 -968 Descending Indianapolis Center
Thu 03:52:30 PM 37.8469 -81.8106 186° South 394 453 34,400 -1,016 Descending Indianapolis Center
Thu 03:53:32 PM 37.7306 -81.8281 187° South 391 450 33,300 -1,016 Descending Indianapolis Center
Thu 03:54:34 PM 37.6153 -81.8433 186° South 404 465 32,300 -968 Descending Indianapolis Center
Thu 03:55:36 PM 37.4994 -81.8597 186° South 411 473 31,300 -1,065 Descending Indianapolis Center
Thu 03:56:38 PM 37.3669 -81.8781 186° South 411 473 30,100 -1,065 Descending Indianapolis Center
Thu 03:57:40 PM 37.2556 -81.8942 187° South 405 466 29,100 -968 Descending Indianapolis Center
Thu 03:58:42 PM 37.1439 -81.9103 187° South 403 464 28,100 -528 Descending Indianapolis Center
Thu 03:59:45 PM 37.0311 -81.9264 187° South 403 464 28,000 -48 Descending Indianapolis Center
Thu 04:00:47 PM 36.9186 -81.9422 186° South 403 464 28,000  Level Indianapolis Center
Thu 04:01:49 PM 36.8064 -81.9639 189° South 403 464 28,000 -677 Level Indianapolis Center
Thu 04:02:51 PM 36.6789 -81.9928 190° South 401 461 26,600 -1,282 Descending Indianapolis Center
Thu 04:03:46 PM 36.5900 -82.0117 190° South 404 465 25,500 -1,252 Descending Atlanta Center
Thu 04:04:46 PM 36.4842 -82.0350 190° South 399 459 24,200 -750 Descending Atlanta Center
Thu 04:05:46 PM 36.3678 -82.0611 190° South 394 453 24,000 -100 Descending Atlanta Center
Thu 04:06:46 PM 36.2639 -82.0842 190° South 388 447 24,000 -150 Level Atlanta Center
Thu 04:07:46 PM 36.1703 -82.1072 191° South 388 447 23,700 -1,100 Descending Atlanta Center
Thu 04:08:46 PM 36.0706 -82.1275 189° South 388 447 21,800 -1,800 Descending Atlanta Center
Thu 04:09:46 PM 35.9686 -82.1503 190° South 382 440 20,100 -1,750 Descending Atlanta Center
Thu 04:10:46 PM 35.8667 -82.1733 190° South 376 433 18,300 -1,700 Descending Atlanta Center
Thu 04:11:46 PM 35.7711 -82.1933 190° South 369 425 16,700 -1,650 Descending Atlanta Center
Thu 04:12:46 PM 35.6756 -82.2161 191° South 364 419 15,000 -1,600 Descending Atlanta Center
Thu 04:13:46 PM 35.5778 -82.2361 189° South 364 419 13,500 -1,550 Descending Atlanta Center
Thu 04:14:46 PM 35.4842 -82.2533 189° South 349 402 11,900 -1,650 Descending Atlanta Center
Thu 04:15:46 PM 35.4008 -82.2681 188° South 338 389 10,200 -1,750 Descending Atlanta Center
Thu 04:16:46 PM 35.3172 -82.2622 177° South 311 358 8,400 -1,550 Descending Atlanta Center
Thu 04:17:46 PM 35.2461 -82.2458 169° South 290 334 7,100 -1,150 Descending Atlanta Center
Thu 04:18:46 PM 35.1769 -82.2169 161° South 275 316 6,100 -1,100 Descending Atlanta Center
Thu 04:19:46 PM 35.1078 -82.1931 164° South 268 308 4,900 -1,250 Descending Atlanta Center
Thu 04:20:46 PM 35.0406 -82.1742 167° South 261 300 3,600 -900 Descending Atlanta Center
Thu 04:21:46 PM 34.9653 -82.1531 167° South 253 291 3,100 -500 Descending Atlanta Center
Thu 04:23:00 PM 34.8957 -82.2189 180° South  Level Estimated
Thu 04:30:00 PM 34.8957 -82.2189 180° South  Level Estimated
Thu 04:31:00 PM 34.8957 -82.2189 180° South  Level Estimated

Login

Don't have an account? Register now (free) for customized features, flight alerts, and more!